Time;durP1;ratioP1;P1;durP2;ratioP2;P2;SDS_P1;SDS_P2;PMS_P1;PMS_P2;Temp;Humidity;BMP_temperature;BMP_pressure;BME280_temperature;BME280_humidity;BME280_pressure;Samples;Min_cycle;Max_cycle;Signal;HPM_P1;HPM_P2
2022/04/16 00:01:21;;;;;;;3.55;1.90;;;;;;;;;;5014067;28;20030;-78
2022/04/16 00:03:47;;;;;;;5.63;1.83;;;;;;;;;;5008086;28;20396;-78
2022/04/16 00:06:13;;;;;;;3.97;1.48;;;;;;;;;;5009209;28;20026;-78
2022/04/16 00:08:39;;;;;;;3.30;1.58;;;;;;;;;;5009387;28;20506;-78
2022/04/16 00:11:06;;;;;;;5.15;1.65;;;;;;;;;;5012528;28;20037;-78
2022/04/16 00:13:32;;;;;;;2.80;1.77;;;;;;;;;;5008961;28;20018;-78
2022/04/16 00:15:58;;;;;;;6.53;1.83;;;;;;;;;;5013139;28;20029;-78
2022/04/16 00:18:24;;;;;;;4.00;1.67;;;;;;;;;;5014885;28;20040;-78
2022/04/16 00:20:51;;;;;;;4.80;1.60;;;;;;;;;;5012264;28;20037;-78
2022/04/16 00:23:20;;;;;;;3.00;1.60;;;;;;;;;;5010489;28;20030;-78
2022/04/16 00:25:47;;;;;;;7.38;1.98;;;;;;;;;;5012054;28;20255;-78
2022/04/16 00:28:13;;;;;;;10.70;1.70;;;;;;;;;;5007642;28;20056;-78
2022/04/16 00:30:40;;;;;;;6.35;1.80;;;;;;;;;;5013628;28;20076;-78
2022/04/16 00:33:10;;;;;;;4.30;1.63;;;;;;;;;;5016060;28;20425;-78
2022/04/16 00:35:37;;;;;;;6.10;1.50;;;;;;;;;;5011465;28;20030;-78
2022/04/16 00:38:03;;;;;;;5.18;2.05;;;;;;;;;;5014140;28;20139;-78
2022/04/16 00:40:29;;;;;;;6.20;1.60;;;;;;;;;;5012654;28;20030;-78
2022/04/16 00:42:55;;;;;;;3.75;1.60;;;;;;;;;;5008984;28;20397;-77
2022/04/16 00:45:22;;;;;;;5.13;1.80;;;;;;;;;;5005738;28;20018;-78
2022/04/16 00:47:48;;;;;;;3.40;1.73;;;;;;;;;;5007501;28;20472;-78
2022/04/16 00:50:14;;;;;;;5.18;1.67;;;;;;;;;;5008413;28;20038;-78
2022/04/16 00:52:40;;;;;;;4.68;1.55;;;;;;;;;;5009160;28;20041;-78
2022/04/16 00:55:08;;;;;;;4.70;1.75;;;;;;;;;;5007782;28;20044;-78
2022/04/16 00:57:35;;;;;;;4.80;1.85;;;;;;;;;;5013129;28;20136;-78
2022/04/16 01:00:01;;;;;;;5.05;1.77;;;;;;;;;;5008760;28;20022;-78
2022/04/16 01:02:28;;;;;;;4.35;1.65;;;;;;;;;;5023994;28;20030;-78
2022/04/16 01:04:56;;;;;;;5.60;1.80;;;;;;;;;;5008666;28;20084;-78
2022/04/16 01:07:23;;;;;;;8.02;1.73;;;;;;;;;;5008894;28;20132;-78
2022/04/16 01:09:49;;;;;;;5.50;1.98;;;;;;;;;;5006739;28;20414;-78
2022/04/16 01:12:15;;;;;;;5.95;1.80;;;;;;;;;;5008338;28;20469;-78
2022/04/16 01:14:41;;;;;;;4.60;1.50;;;;;;;;;;5008547;28;20037;-78
2022/04/16 01:17:07;;;;;;;9.93;1.70;;;;;;;;;;5008194;28;20058;-78
2022/04/16 01:19:34;;;;;;;4.43;1.77;;;;;;;;;;5014757;28;20071;-78
2022/04/16 01:22:00;;;;;;;3.55;1.60;;;;;;;;;;5008920;28;20061;-78
2022/04/16 01:24:26;;;;;;;5.80;1.80;;;;;;;;;;5008706;28;20425;-78
2022/04/16 01:26:52;;;;;;;6.88;1.90;;;;;;;;;;5005669;28;20038;-78
2022/04/16 01:29:18;;;;;;;5.68;2.05;;;;;;;;;;5000938;28;20042;-78
2022/04/16 01:31:45;;;;;;;3.15;1.92;;;;;;;;;;5008855;28;20033;-78
2022/04/16 01:34:11;;;;;;;6.60;1.85;;;;;;;;;;5008572;28;20047;-78
2022/04/16 01:36:37;;;;;;;3.40;1.80;;;;;;;;;;5010089;28;20397;-77
2022/04/16 01:39:03;;;;;;;5.80;2.00;;;;;;;;;;5009008;28;20029;-78
2022/04/16 01:41:29;;;;;;;8.02;2.00;;;;;;;;;;5008608;28;20607;-78
2022/04/16 01:43:56;;;;;;;5.07;1.65;;;;;;;;;;5010732;28;20107;-78
2022/04/16 01:46:21;;;;;;;4.75;1.85;;;;;;;;;;5016578;28;20021;-78
2022/04/16 01:48:49;;;;;;;7.65;2.00;;;;;;;;;;5010545;28;20049;-77
2022/04/16 01:51:17;;;;;;;7.88;1.98;;;;;;;;;;5010440;28;20022;-78
2022/04/16 01:53:43;;;;;;;4.78;1.65;;;;;;;;;;5011815;28;20465;-78
2022/04/16 01:56:09;;;;;;;6.38;2.03;;;;;;;;;;5013301;28;20060;-78
2022/04/16 01:58:38;;;;;;;3.85;2.00;;;;;;;;;;5010799;28;20080;-78
2022/04/16 02:01:05;;;;;;;6.22;2.28;;;;;;;;;;5015177;28;20046;-78
2022/04/16 02:03:30;;;;;;;3.47;2.00;;;;;;;;;;5015710;28;20103;-78
2022/04/16 02:05:56;;;;;;;6.78;2.00;;;;;;;;;;5017260;28;20481;-78
2022/04/16 02:08:22;;;;;;;5.28;1.90;;;;;;;;;;5012571;28;20030;-78
2022/04/16 02:10:48;;;;;;;5.68;2.22;;;;;;;;;;5011322;28;20108;-78
2022/04/16 02:13:14;;;;;;;5.05;1.92;;;;;;;;;;5014961;28;20107;-78
2022/04/16 02:15:40;;;;;;;6.38;2.20;;;;;;;;;;5014300;28;20026;-79
2022/04/16 02:18:06;;;;;;;4.68;2.08;;;;;;;;;;5013267;28;20492;-77
2022/04/16 02:20:32;;;;;;;3.80;2.20;;;;;;;;;;5011896;28;20084;-77
2022/04/16 02:22:58;;;;;;;6.70;2.38;;;;;;;;;;5011799;28;20092;-78
2022/04/16 02:25:25;;;;;;;3.35;1.85;;;;;;;;;;5012591;28;20485;-78
2022/04/16 02:27:51;;;;;;;6.68;2.17;;;;;;;;;;5011841;28;20038;-78
2022/04/16 02:30:18;;;;;;;7.00;1.77;;;;;;;;;;5010200;28;20135;-78
2022/04/16 02:32:45;;;;;;;2.95;2.03;;;;;;;;;;5014284;28;20066;-78
2022/04/16 02:35:13;;;;;;;4.85;2.17;;;;;;;;;;5016348;28;20033;-78
2022/04/16 02:37:39;;;;;;;6.78;2.20;;;;;;;;;;5014163;28;20072;-78
2022/04/16 02:40:05;;;;;;;5.07;2.20;;;;;;;;;;5011254;28;20035;-78
2022/04/16 02:42:35;;;;;;;4.18;2.30;;;;;;;;;;5016317;28;20469;-78
2022/04/16 02:47:45;;;;;;;8.27;1.90;;;;;;;;;;5009176;28;20572;-78
2022/04/16 02:50:12;;;;;;;4.20;1.92;;;;;;;;;;5010908;28;20113;-77
2022/04/16 02:52:39;;;;;;;9.20;2.30;;;;;;;;;;5011110;28;20060;-78
2022/04/16 02:55:05;;;;;;;6.70;2.20;;;;;;;;;;5002469;28;20030;-77
2022/04/16 02:57:31;;;;;;;3.13;1.85;;;;;;;;;;5010539;28;20112;-78
2022/04/16 02:59:57;;;;;;;6.28;2.20;;;;;;;;;;5018393;28;20025;-78
2022/04/16 03:02:23;;;;;;;5.07;2.30;;;;;;;;;;5014454;28;20029;-76
2022/04/16 03:04:50;;;;;;;4.32;2.22;;;;;;;;;;5009436;28;20034;-77
2022/04/16 03:07:16;;;;;;;4.30;1.95;;;;;;;;;;5011760;28;20061;-77
2022/04/16 03:09:42;;;;;;;5.82;2.25;;;;;;;;;;5017996;28;20100;-77
2022/04/16 03:12:08;;;;;;;3.35;2.03;;;;;;;;;;5017628;28;20030;-77
2022/04/16 03:17:34;;;;;;;6.57;2.13;;;;;;;;;;5011090;28;20085;-76
2022/04/16 03:20:10;;;;;;;10.07;2.30;;;;;;;;;;5008407;28;20366;-77
2022/04/16 03:22:37;;;;;;;6.95;2.15;;;;;;;;;;5009129;28;20042;-76
2022/04/16 03:25:04;;;;;;;5.22;2.28;;;;;;;;;;5013909;28;20029;-76
2022/04/16 03:27:29;;;;;;;4.97;2.33;;;;;;;;;;5013639;28;20405;-77
2022/04/16 03:29:55;;;;;;;4.25;2.00;;;;;;;;;;5013448;28;20030;-76
2022/04/16 03:32:21;;;;;;;5.20;2.45;;;;;;;;;;5012945;28;20030;-77
2022/04/16 03:34:47;;;;;;;4.43;1.85;;;;;;;;;;5010142;28;20148;-78
2022/04/16 03:37:13;;;;;;;6.07;2.10;;;;;;;;;;5009889;28;20404;-76
2022/04/16 03:39:39;;;;;;;4.90;2.45;;;;;;;;;;5013504;28;20524;-77
2022/04/16 03:42:05;;;;;;;7.57;2.35;;;;;;;;;;5015321;28;20262;-76
2022/04/16 03:44:31;;;;;;;4.63;2.15;;;;;;;;;;5009372;28;20121;-76
2022/04/16 03:46:57;;;;;;;5.85;2.20;;;;;;;;;;5010069;28;20037;-77
2022/04/16 03:49:23;;;;;;;4.75;2.17;;;;;;;;;;5009055;28;20044;-76
2022/04/16 03:51:49;;;;;;;6.13;2.08;;;;;;;;;;5010930;28;20042;-77
2022/04/16 03:59:59;;;;;;;6.05;2.33;;;;;;;;;;5009293;28;20121;-77
2022/04/16 04:02:25;;;;;;;4.32;2.10;;;;;;;;;;5009554;28;20014;-76
2022/04/16 04:04:51;;;;;;;6.38;2.20;;;;;;;;;;5008740;28;20103;-77
2022/04/16 04:07:17;;;;;;;7.97;2.63;;;;;;;;;;5014379;28;20034;-77
2022/04/16 04:09:44;;;;;;;3.22;1.98;;;;;;;;;;5010264;28;20046;-76
2022/04/16 04:12:13;;;;;;;12.38;2.30;;;;;;;;;;5008827;28;20030;-77
2022/04/16 04:14:39;;;;;;;6.05;2.58;;;;;;;;;;5014501;28;20422;-77
2022/04/16 04:17:08;;;;;;;6.05;2.10;;;;;;;;;;5013148;28;20030;-78
2022/04/16 04:19:35;;;;;;;5.35;2.40;;;;;;;;;;5013024;28;20025;-77
2022/04/16 04:22:01;;;;;;;6.65;2.40;;;;;;;;;;5008139;28;20027;-77
2022/04/16 04:24:27;;;;;;;5.22;2.35;;;;;;;;;;5009599;28;20461;-77
2022/04/16 04:26:57;;;;;;;6.78;2.28;;;;;;;;;;5007553;28;20049;-77
2022/04/16 04:29:23;;;;;;;4.57;2.28;;;;;;;;;;5015775;28;20109;-77
2022/04/16 04:31:49;;;;;;;3.92;2.22;;;;;;;;;;5008794;28;20595;-77
2022/04/16 04:34:15;;;;;;;4.80;2.08;;;;;;;;;;5008807;28;20026;-77
2022/04/16 04:36:41;;;;;;;5.65;2.10;;;;;;;;;;5012251;28;20122;-78
2022/04/16 04:39:07;;;;;;;3.63;2.05;;;;;;;;;;5008339;28;20060;-78
2022/04/16 04:41:33;;;;;;;7.93;2.28;;;;;;;;;;5008782;28;20092;-77
2022/04/16 04:43:58;;;;;;;4.63;2.15;;;;;;;;;;5010261;28;20037;-78
2022/04/16 04:46:24;;;;;;;8.07;2.50;;;;;;;;;;5008160;28;20503;-77
2022/04/16 04:48:50;;;;;;;3.00;1.70;;;;;;;;;;5005793;28;20117;-77
2022/04/16 04:51:16;;;;;;;7.07;2.03;;;;;;;;;;5008486;28;20434;-77
2022/04/16 04:53:42;;;;;;;5.00;2.13;;;;;;;;;;5008745;28;20018;-77
2022/04/16 04:56:08;;;;;;;6.40;2.08;;;;;;;;;;5009282;28;20432;-77
2022/04/16 04:58:34;;;;;;;5.95;1.88;;;;;;;;;;5012064;28;20105;-77
2022/04/16 05:01:00;;;;;;;7.53;1.95;;;;;;;;;;5010807;28;20041;-78
2022/04/16 05:03:26;;;;;;;6.38;2.13;;;;;;;;;;5008231;28;20548;-77
2022/04/16 05:05:52;;;;;;;4.95;2.22;;;;;;;;;;5009780;28;20034;-77
2022/04/16 05:08:18;;;;;;;4.28;2.42;;;;;;;;;;5009889;28;20060;-77
2022/04/16 05:10:43;;;;;;;3.13;1.88;;;;;;;;;;5009860;28;20389;-78
2022/04/16 05:13:09;;;;;;;4.65;2.20;;;;;;;;;;5010577;28;20038;-77
2022/04/16 05:15:35;;;;;;;4.85;1.80;;;;;;;;;;5008832;28;20030;-77
2022/04/16 05:18:01;;;;;;;7.07;2.33;;;;;;;;;;5009508;28;20021;-77
2022/04/16 05:20:27;;;;;;;3.53;2.10;;;;;;;;;;5014527;28;20641;-77
2022/04/16 05:22:53;;;;;;;6.53;2.30;;;;;;;;;;5012125;28;20137;-77
2022/04/16 05:25:19;;;;;;;3.97;1.98;;;;;;;;;;5009130;28;20448;-78
2022/04/16 05:27:46;;;;;;;6.32;1.85;;;;;;;;;;5012401;28;20497;-77
2022/04/16 05:30:22;;;;;;;4.43;2.08;;;;;;;;;;5010947;28;20026;-77
2022/04/16 05:32:50;;;;;;;3.90;1.70;;;;;;;;;;5012380;28;20113;-77
2022/04/16 05:35:16;;;;;;;4.78;1.80;;;;;;;;;;5011841;28;20033;-77
2022/04/16 05:37:42;;;;;;;4.93;2.38;;;;;;;;;;5011205;28;20034;-78
2022/04/16 05:40:08;;;;;;;8.73;2.10;;;;;;;;;;5009938;28;20034;-78
2022/04/16 05:42:41;;;;;;;7.78;2.08;;;;;;;;;;5007723;28;20022;-77
2022/04/16 05:45:07;;;;;;;6.93;2.00;;;;;;;;;;5017027;28;20026;-77
2022/04/16 05:47:33;;;;;;;7.60;1.75;;;;;;;;;;5012940;28;20037;-77
2022/04/16 05:49:59;;;;;;;9.82;2.30;;;;;;;;;;5012278;28;20037;-78
2022/04/16 05:52:25;;;;;;;5.25;1.90;;;;;;;;;;5013647;28;20084;-78
2022/04/16 05:54:52;;;;;;;8.77;1.80;;;;;;;;;;5012797;28;20503;-78
2022/04/16 05:57:18;;;;;;;3.25;2.13;;;;;;;;;;5004638;28;20061;-77
2022/04/16 05:59:44;;;;;;;5.18;2.03;;;;;;;;;;5015624;28;20030;-78
2022/04/16 06:02:10;;;;;;;5.20;1.83;;;;;;;;;;5012044;28;20053;-77
2022/04/16 06:04:36;;;;;;;6.57;2.00;;;;;;;;;;5012660;28;20033;-77
2022/04/16 06:07:02;;;;;;;4.25;1.77;;;;;;;;;;5015283;28;20029;-77
2022/04/16 06:09:28;;;;;;;6.18;2.03;;;;;;;;;;5013904;28;20056;-78
2022/04/16 06:12:13;;;;;;;5.88;1.73;;;;;;;;;;5019267;28;20030;-78
2022/04/16 06:14:39;;;;;;;21.92;7.43;;;;;;;;;;5002516;28;20451;-78
2022/04/16 06:17:05;;;;;;;5.30;2.28;;;;;;;;;;5008508;28;20034;-78
2022/04/16 06:19:31;;;;;;;6.90;1.98;;;;;;;;;;5013973;28;20585;-79
2022/04/16 06:22:00;;;;;;;5.88;1.85;;;;;;;;;;5010666;28;20026;-79
2022/04/16 06:24:26;;;;;;;4.80;1.90;;;;;;;;;;5013449;28;20172;-78
2022/04/16 06:26:52;;;;;;;5.28;1.95;;;;;;;;;;5010342;28;20116;-78
2022/04/16 06:29:17;;;;;;;4.32;1.85;;;;;;;;;;5003871;28;20258;-78
2022/04/16 06:31:43;;;;;;;4.80;1.80;;;;;;;;;;5010841;28;20030;-78
2022/04/16 06:34:09;;;;;;;6.45;2.00;;;;;;;;;;5008874;28;20392;-78
2022/04/16 06:36:37;;;;;;;4.10;1.85;;;;;;;;;;5010233;28;20038;-78
2022/04/16 06:39:03;;;;;;;6.50;2.10;;;;;;;;;;5008804;28;20029;-78
2022/04/16 06:41:29;;;;;;;5.13;1.90;;;;;;;;;;5009553;28;20056;-78
2022/04/16 06:43:55;;;;;;;5.60;2.05;;;;;;;;;;5005421;28;20029;-78
2022/04/16 06:46:21;;;;;;;4.35;2.00;;;;;;;;;;5010627;28;20083;-78
2022/04/16 06:48:46;;;;;;;5.72;1.80;;;;;;;;;;5009231;28;20432;-78
2022/04/16 06:51:12;;;;;;;6.35;1.63;;;;;;;;;;5004041;28;20060;-79
2022/04/16 06:53:38;;;;;;;6.28;2.40;;;;;;;;;;5006756;28;20476;-78
2022/04/16 06:56:04;;;;;;;6.80;1.98;;;;;;;;;;5008712;28;20025;-78
2022/04/16 06:58:30;;;;;;;3.28;1.90;;;;;;;;;;5013842;28;20542;-78
2022/04/16 07:00:56;;;;;;;4.22;1.70;;;;;;;;;;5010335;28;20026;-78
2022/04/16 07:03:22;;;;;;;4.90;1.70;;;;;;;;;;5005772;28;20030;-78
2022/04/16 07:05:48;;;;;;;5.03;1.70;;;;;;;;;;5003989;28;20034;-78
2022/04/16 07:08:14;;;;;;;7.15;2.00;;;;;;;;;;5005034;28;20037;-78
2022/04/16 07:10:40;;;;;;;2.42;1.75;;;;;;;;;;5009705;28;20061;-78
2022/04/16 07:13:06;;;;;;;3.10;1.58;;;;;;;;;;5007680;28;20152;-78
2022/04/16 07:15:33;;;;;;;3.42;1.50;;;;;;;;;;5007721;28;20034;-78
2022/04/16 07:17:59;;;;;;;2.42;1.40;;;;;;;;;;5005427;28;20041;-78
2022/04/16 07:20:26;;;;;;;7.18;1.80;;;;;;;;;;5006868;28;20022;-79
2022/04/16 07:22:51;;;;;;;4.53;1.38;;;;;;;;;;5006823;28;20049;-84
2022/04/16 07:25:18;;;;;;;4.65;1.80;;;;;;;;;;5008999;28;20422;-79
2022/04/16 07:27:43;;;;;;;1.98;1.52;;;;;;;;;;5008540;28;20036;-79
2022/04/16 07:30:10;;;;;;;3.05;1.30;;;;;;;;;;5009784;28;20033;-79
2022/04/16 07:32:36;;;;;;;5.47;1.20;;;;;;;;;;5007726;28;20037;-79
2022/04/16 07:35:02;;;;;;;3.42;1.38;;;;;;;;;;5009573;28;20515;-78
2022/04/16 07:37:28;;;;;;;3.30;1.40;;;;;;;;;;5009606;28;20044;-78
2022/04/16 07:39:54;;;;;;;3.88;1.30;;;;;;;;;;5010717;28;20022;-79
2022/04/16 07:42:20;;;;;;;2.00;1.10;;;;;;;;;;5009632;28;20109;-79
2022/04/16 07:44:46;;;;;;;3.85;1.30;;;;;;;;;;5008108;28;20100;-80
2022/04/16 07:47:11;;;;;;;1.50;1.08;;;;;;;;;;5006104;28;20536;-80
2022/04/16 07:49:37;;;;;;;2.75;1.52;;;;;;;;;;5009393;28;20076;-79
2022/04/16 07:52:03;;;;;;;3.22;1.30;;;;;;;;;;5007479;28;20033;-80
2022/04/16 07:54:29;;;;;;;3.10;1.13;;;;;;;;;;5008988;28;20503;-79
2022/04/16 07:56:55;;;;;;;3.30;1.33;;;;;;;;;;5007520;28;20029;-79
2022/04/16 07:59:21;;;;;;;1.65;0.93;;;;;;;;;;5008264;28;20018;-78
2022/04/16 08:01:47;;;;;;;3.25;1.23;;;;;;;;;;5008627;28;20026;-84
2022/04/16 08:04:13;;;;;;;3.33;1.20;;;;;;;;;;5008982;28;20391;-79
2022/04/16 08:06:39;;;;;;;3.60;1.10;;;;;;;;;;5007049;28;20054;-78
2022/04/16 08:09:05;;;;;;;2.25;1.17;;;;;;;;;;5008045;28;20067;-87
2022/04/16 08:11:31;;;;;;;2.00;1.20;;;;;;;;;;5004903;28;20220;-78
2022/04/16 08:13:58;;;;;;;1.42;1.33;;;;;;;;;;5009109;28;20034;-79
2022/04/16 08:16:24;;;;;;;1.40;1.08;;;;;;;;;;5002962;28;20038;-84
2022/04/16 08:18:50;;;;;;;2.53;1.10;;;;;;;;;;5003481;28;20122;-81
2022/04/16 08:21:16;;;;;;;4.47;1.48;;;;;;;;;;5006388;28;20025;-80
2022/04/16 08:23:55;;;;;;;5.22;1.35;;;;;;;;;;5007872;28;20034;-81
2022/04/16 08:26:24;;;;;;;3.50;1.33;;;;;;;;;;5007540;28;20037;-80
2022/04/16 08:28:50;;;;;;;2.30;1.10;;;;;;;;;;5010042;28;20033;-79
2022/04/16 08:31:16;;;;;;;4.30;1.10;;;;;;;;;;5003309;28;20041;-80
2022/04/16 08:33:42;;;;;;;4.47;0.90;;;;;;;;;;5003842;28;20026;-79
2022/04/16 08:36:08;;;;;;;1.13;0.80;;;;;;;;;;5007020;28;20026;-77
2022/04/16 08:38:34;;;;;;;2.35;1.00;;;;;;;;;;5007343;28;20033;-79
2022/04/16 08:41:01;;;;;;;1.65;1.00;;;;;;;;;;5009267;28;20049;-79
2022/04/16 08:43:27;;;;;;;1.63;1.02;;;;;;;;;;5005492;28;20029;-79
2022/04/16 08:45:53;;;;;;;3.50;1.10;;;;;;;;;;5006698;28;20021;-79
2022/04/16 08:48:20;;;;;;;2.35;1.00;;;;;;;;;;4999646;28;20041;-80
2022/04/16 08:50:47;;;;;;;1.10;1.00;;;;;;;;;;5000640;28;20041;-79
2022/04/16 08:53:13;;;;;;;2.88;1.10;;;;;;;;;;5000825;28;20026;-79
2022/04/16 08:55:39;;;;;;;2.08;1.00;;;;;;;;;;5004069;28;20026;-78
2022/04/16 08:58:05;;;;;;;1.05;0.95;;;;;;;;;;5004500;28;20037;-82
2022/04/16 09:00:31;;;;;;;1.52;1.17;;;;;;;;;;5006110;28;20018;-77
2022/04/16 09:02:58;;;;;;;1.40;0.90;;;;;;;;;;5006048;28;20041;-78
2022/04/16 09:05:28;;;;;;;1.70;0.80;;;;;;;;;;5003843;28;20030;-80
2022/04/16 09:07:55;;;;;;;2.25;1.05;;;;;;;;;;5003970;28;20036;-84
2022/04/16 09:10:22;;;;;;;1.00;0.70;;;;;;;;;;5007621;28;20057;-90
2022/04/16 09:12:52;;;;;;;2.30;0.88;;;;;;;;;;5007529;28;20033;-78
2022/04/16 09:15:18;;;;;;;3.60;1.00;;;;;;;;;;5007166;28;20034;-77
2022/04/16 09:17:44;;;;;;;0.85;0.65;;;;;;;;;;5002330;28;20077;-79
2022/04/16 09:20:14;;;;;;;3.78;1.00;;;;;;;;;;5002908;28;20026;-83
2022/04/16 09:23:10;;;;;;;1.42;0.90;;;;;;;;;;4998928;28;20026;-74
2022/04/16 09:25:35;;;;;;;1.65;0.85;;;;;;;;;;4987503;28;20030;-76
2022/04/16 09:28:06;;;;;;;2.33;0.80;;;;;;;;;;5003700;28;20022;-73
2022/04/16 09:30:33;;;;;;;1.50;0.88;;;;;;;;;;5007733;28;20032;-70
2022/04/16 09:32:59;;;;;;;3.03;0.90;;;;;;;;;;5003349;28;20080;-73
2022/04/16 09:35:28;;;;;;;1.90;0.90;;;;;;;;;;5003331;28;20037;-69
2022/04/16 09:37:55;;;;;;;1.98;0.90;;;;;;;;;;5015841;28;20048;-72
2022/04/16 09:40:21;;;;;;;1.20;0.80;;;;;;;;;;5017491;28;20029;-73
2022/04/16 09:42:54;;;;;;;3.08;0.80;;;;;;;;;;5008939;28;20034;-75
2022/04/16 09:45:20;;;;;;;0.57;0.57;;;;;;;;;;5008248;28;20145;-74
2022/04/16 09:47:50;;;;;;;2.22;0.73;;;;;;;;;;5010867;28;20125;-75
2022/04/16 09:50:18;;;;;;;1.08;0.80;;;;;;;;;;5006073;28;20027;-74
2022/04/16 09:52:44;;;;;;;4.00;0.85;;;;;;;;;;5009908;28;20026;-74
2022/04/16 09:55:10;;;;;;;2.00;0.80;;;;;;;;;;5008433;28;20042;-73
2022/04/16 09:57:41;;;;;;;1.17;0.88;;;;;;;;;;5008701;28;20041;-74
2022/04/16 10:00:07;;;;;;;1.27;0.80;;;;;;;;;;4996839;28;20027;-73
2022/04/16 10:02:34;;;;;;;0.80;0.63;;;;;;;;;;5016127;28;20057;-75
2022/04/16 10:05:00;;;;;;;1.90;0.90;;;;;;;;;;5006334;28;20022;-72
2022/04/16 10:07:27;;;;;;;1.45;0.90;;;;;;;;;;5013780;28;20046;-72
2022/04/16 10:09:53;;;;;;;1.50;0.85;;;;;;;;;;5012638;28;20541;-72
2022/04/16 10:15:16;;;;;;;2.30;0.80;;;;;;;;;;5009424;28;20145;-74
2022/04/16 10:17:50;;;;;;;2.25;1.10;;;;;;;;;;5011646;28;20117;-74
2022/04/16 10:20:17;;;;;;;3.95;0.80;;;;;;;;;;4997269;28;20393;-75
2022/04/16 10:22:56;;;;;;;2.90;0.77;;;;;;;;;;4996072;28;20022;-75
2022/04/16 10:25:31;;;;;;;0.70;0.70;;;;;;;;;;5008237;28;20433;-75
2022/04/16 10:28:00;;;;;;;2.60;0.90;;;;;;;;;;5007439;28;20496;-74
2022/04/16 10:30:35;;;;;;;2.28;0.98;;;;;;;;;;5004786;28;20046;-74
2022/04/16 10:33:03;;;;;;;3.60;0.85;;;;;;;;;;4997178;28;20042;-75
2022/04/16 10:35:29;;;;;;;1.65;0.70;;;;;;;;;;5007998;28;20590;-74
2022/04/16 10:37:55;;;;;;;0.98;0.88;;;;;;;;;;5003702;28;20030;-74
2022/04/16 10:40:23;;;;;;;1.55;0.73;;;;;;;;;;5000652;28;20033;-74
2022/04/16 10:42:50;;;;;;;3.03;1.02;;;;;;;;;;5009541;28;20383;-75
2022/04/16 10:45:16;;;;;;;3.00;0.73;;;;;;;;;;5001530;28;20109;-74
2022/04/16 10:47:42;;;;;;;0.73;0.70;;;;;;;;;;5003300;28;20125;-75
2022/04/16 10:50:15;;;;;;;1.30;0.80;;;;;;;;;;4998785;28;20030;-74
2022/04/16 10:52:52;;;;;;;2.30;0.80;;;;;;;;;;4997173;28;20042;-74
2022/04/16 10:55:20;;;;;;;0.85;0.70;;;;;;;;;;5001530;28;20224;-74
2022/04/16 10:57:55;;;;;;;2.90;0.63;;;;;;;;;;5009407;28;20493;-75
2022/04/16 11:00:21;;;;;;;8.18;0.90;;;;;;;;;;5002368;28;20033;-74
2022/04/16 11:02:47;;;;;;;1.75;0.70;;;;;;;;;;5007611;28;20044;-74
2022/04/16 11:05:13;;;;;;;0.82;0.70;;;;;;;;;;5001821;28;20540;-75
2022/04/16 11:07:40;;;;;;;0.98;0.68;;;;;;;;;;5008269;28;20029;-75
2022/04/16 11:10:08;;;;;;;1.23;0.60;;;;;;;;;;5007488;28;20046;-74
2022/04/16 11:12:34;;;;;;;1.10;0.70;;;;;;;;;;5005161;28;20054;-75
2022/04/16 11:15:00;;;;;;;1.20;0.63;;;;;;;;;;5001014;28;20030;-75
2022/04/16 11:17:27;;;;;;;1.42;0.70;;;;;;;;;;5002608;28;20021;-74
2022/04/16 11:20:00;;;;;;;1.75;0.77;;;;;;;;;;5001356;28;20053;-73
2022/04/16 11:22:26;;;;;;;0.88;0.55;;;;;;;;;;5005103;28;20034;-77
2022/04/16 11:24:52;;;;;;;1.45;0.90;;;;;;;;;;4999326;28;20019;-74
2022/04/16 11:35:59;;;;;;;1.80;0.80;;;;;;;;;;5005764;28;20040;-73
2022/04/16 11:38:29;;;;;;;2.17;0.80;;;;;;;;;;5007218;28;20026;-72
2022/04/16 11:40:55;;;;;;;1.95;0.90;;;;;;;;;;5007109;28;20027;-73
2022/04/16 11:43:23;;;;;;;1.55;0.70;;;;;;;;;;5013903;28;20033;-71
2022/04/16 11:45:49;;;;;;;0.60;0.60;;;;;;;;;;4998836;28;20161;-72
2022/04/16 11:48:16;;;;;;;1.42;0.70;;;;;;;;;;5000632;28;20025;-71
2022/04/16 11:50:42;;;;;;;1.20;1.00;;;;;;;;;;5001227;28;20121;-73
2022/04/16 11:53:11;;;;;;;1.55;0.73;;;;;;;;;;4998053;28;20165;-73
2022/04/16 11:55:44;;;;;;;2.03;0.98;;;;;;;;;;5001587;28;20030;-72
2022/04/16 11:58:10;;;;;;;2.30;0.88;;;;;;;;;;5010037;28;20389;-72
2022/04/16 12:00:47;;;;;;;1.15;0.90;;;;;;;;;;5003186;28;20022;-74
2022/04/16 12:03:14;;;;;;;2.67;0.80;;;;;;;;;;5007050;28;20052;-74
2022/04/16 12:05:42;;;;;;;1.55;0.70;;;;;;;;;;5001953;28;20427;-74
2022/04/16 12:08:09;;;;;;;2.45;0.70;;;;;;;;;;5006611;28;20484;-74
2022/04/16 12:10:36;;;;;;;2.55;0.80;;;;;;;;;;5003836;28;20054;-69
2022/04/16 12:13:09;;;;;;;1.42;0.60;;;;;;;;;;5003518;28;20069;-70
2022/04/16 12:15:39;;;;;;;2.13;0.95;;;;;;;;;;5005132;28;20033;-70
2022/04/16 12:18:12;;;;;;;1.38;0.90;;;;;;;;;;5002257;28;20086;-71
2022/04/16 12:20:42;;;;;;;0.88;0.60;;;;;;;;;;5002307;28;20023;-71
2022/04/16 12:23:13;;;;;;;1.35;0.68;;;;;;;;;;5003188;28;20022;-70
2022/04/16 12:25:41;;;;;;;1.75;0.75;;;;;;;;;;5011167;28;20037;-70
2022/04/16 12:28:11;;;;;;;0.60;0.60;;;;;;;;;;5003612;28;20026;-70
2022/04/16 12:30:37;;;;;;;1.13;0.70;;;;;;;;;;5006715;28;20034;-69
2022/04/16 12:33:09;;;;;;;1.05;0.70;;;;;;;;;;5013616;28;20652;-70
2022/04/16 12:35:47;;;;;;;1.42;0.60;;;;;;;;;;5012431;28;20033;-70
2022/04/16 12:38:17;;;;;;;1.33;0.60;;;;;;;;;;5004113;28;20124;-70
2022/04/16 12:40:43;;;;;;;1.53;0.60;;;;;;;;;;5005365;28;20054;-70
2022/04/16 12:43:09;;;;;;;1.95;0.70;;;;;;;;;;5010588;28;20325;-70
2022/04/16 12:45:35;;;;;;;1.23;0.60;;;;;;;;;;5007471;28;20084;-70
2022/04/16 12:48:01;;;;;;;0.80;0.57;;;;;;;;;;5008015;28;20042;-70
2022/04/16 12:50:28;;;;;;;0.90;0.60;;;;;;;;;;5005718;28;20115;-70
2022/04/16 12:52:54;;;;;;;0.90;0.55;;;;;;;;;;4997314;28;20029;-70
2022/04/16 12:55:25;;;;;;;1.15;0.57;;;;;;;;;;5000731;28;20393;-70
2022/04/16 12:57:51;;;;;;;;;;;;;;;;;;5002592;28;20488;-71
2022/04/16 13:00:17;;;;;;;1.15;0.70;;;;;;;;;;4999605;28;19979;-71
2022/04/16 13:02:44;;;;;;;0.93;0.60;;;;;;;;;;5004308;28;20026;-70
2022/04/16 13:05:11;;;;;;;1.35;0.73;;;;;;;;;;5005260;28;20042;-71
2022/04/16 13:07:38;;;;;;;0.60;0.50;;;;;;;;;;5007146;28;20022;-72
2022/04/16 13:10:05;;;;;;;3.50;0.80;;;;;;;;;;5005794;28;20081;-71
2022/04/16 13:12:31;;;;;;;1.10;0.70;;;;;;;;;;5004646;28;20034;-71
2022/04/16 13:14:57;;;;;;;0.77;0.73;;;;;;;;;;5006169;28;20084;-71
2022/04/16 13:17:23;;;;;;;0.60;0.60;;;;;;;;;;5005425;28;20046;-71
2022/04/16 13:19:50;;;;;;;0.93;0.80;;;;;;;;;;5004605;28;20054;-69
2022/04/16 13:22:16;;;;;;;1.75;0.93;;;;;;;;;;5000423;28;20026;-68
2022/04/16 13:24:42;;;;;;;1.75;0.77;;;;;;;;;;5004401;28;20038;-69
2022/04/16 13:27:08;;;;;;;1.48;0.90;;;;;;;;;;5005324;28;20018;-69
2022/04/16 13:29:34;;;;;;;1.90;0.90;;;;;;;;;;5018883;28;20061;-71
2022/04/16 13:32:00;;;;;;;3.00;0.93;;;;;;;;;;5004833;28;20396;-71
2022/04/16 13:34:26;;;;;;;0.85;0.63;;;;;;;;;;5005456;28;20030;-72
2022/04/16 13:36:52;;;;;;;0.88;0.73;;;;;;;;;;5004390;28;20149;-71
2022/04/16 13:42:03;;;;;;;1.92;0.90;;;;;;;;;;5007046;28;20088;-71
2022/04/16 13:44:29;;;;;;;1.88;0.70;;;;;;;;;;5007327;28;20049;-72
2022/04/16 13:46:55;;;;;;;1.98;0.90;;;;;;;;;;5006876;28;20061;-71
2022/04/16 13:49:21;;;;;;;2.65;0.98;;;;;;;;;;5005616;28;20498;-73
2022/04/16 13:51:47;;;;;;;1.55;0.70;;;;;;;;;;5009978;28;20568;-71
2022/04/16 13:54:13;;;;;;;0.82;0.70;;;;;;;;;;5007467;28;20045;-71
2022/04/16 13:56:39;;;;;;;1.65;0.60;;;;;;;;;;5006266;28;20034;-72
2022/04/16 13:59:09;;;;;;;1.65;0.82;;;;;;;;;;4999206;28;20445;-73
2022/04/16 14:01:35;;;;;;;1.30;0.73;;;;;;;;;;5000715;28;20030;-72
2022/04/16 14:04:02;;;;;;;0.98;0.70;;;;;;;;;;5009540;28;20029;-72
2022/04/16 14:06:29;;;;;;;1.08;0.77;;;;;;;;;;5003205;28;20026;-72
2022/04/16 14:08:55;;;;;;;0.90;0.70;;;;;;;;;;5008957;28;20441;-74
2022/04/16 14:11:21;;;;;;;1.58;0.80;;;;;;;;;;5004764;28;20036;-70
2022/04/16 14:13:47;;;;;;;1.45;1.00;;;;;;;;;;4999566;28;20034;-71
2022/04/16 14:16:14;;;;;;;1.25;0.75;;;;;;;;;;4998640;28;20029;-71
2022/04/16 14:18:40;;;;;;;0.82;0.60;;;;;;;;;;5007340;28;20113;-72
2022/04/16 14:21:13;;;;;;;1.27;0.75;;;;;;;;;;5002591;28;20808;-72
2022/04/16 14:23:40;;;;;;;0.90;0.77;;;;;;;;;;5003573;28;20116;-73
2022/04/16 14:26:06;;;;;;;0.75;0.60;;;;;;;;;;5021784;28;20089;-73
2022/04/16 14:28:32;;;;;;;2.50;0.75;;;;;;;;;;4998673;28;20037;-72
2022/04/16 14:30:58;;;;;;;0.98;0.75;;;;;;;;;;5004562;28;20031;-72
2022/04/16 14:33:25;;;;;;;1.02;0.63;;;;;;;;;;5003307;28;20442;-72
2022/04/16 14:35:51;;;;;;;0.95;0.60;;;;;;;;;;5008484;28;20030;-73
2022/04/16 14:38:20;;;;;;;1.05;0.82;;;;;;;;;;5008254;28;20117;-73
2022/04/16 14:40:46;;;;;;;1.30;0.50;;;;;;;;;;5009761;28;20026;-71
2022/04/16 14:43:12;;;;;;;0.73;0.52;;;;;;;;;;5009129;28;20026;-71
2022/04/16 14:45:42;;;;;;;1.48;0.70;;;;;;;;;;5003944;28;20029;-73
2022/04/16 14:48:09;;;;;;;1.38;0.65;;;;;;;;;;5002148;28;20026;-72
2022/04/16 14:50:37;;;;;;;1.27;0.90;;;;;;;;;;5004854;28;20025;-72
2022/04/16 14:53:06;;;;;;;1.98;0.63;;;;;;;;;;5011611;28;20050;-72
2022/04/16 14:55:33;;;;;;;2.97;0.95;;;;;;;;;;5010138;28;20025;-72
2022/04/16 14:57:58;;;;;;;2.53;0.73;;;;;;;;;;5010100;28;20497;-72
2022/04/16 15:00:24;;;;;;;0.80;0.80;;;;;;;;;;5004644;28;20022;-71
2022/04/16 15:02:50;;;;;;;1.73;0.80;;;;;;;;;;5015091;28;20018;-72
2022/04/16 15:05:16;;;;;;;1.52;0.85;;;;;;;;;;5008281;28;20481;-71
2022/04/16 15:07:42;;;;;;;1.02;0.80;;;;;;;;;;5008793;28;20396;-71